Погода Лос-Кобаносна 2 недели

Сонсонате, Сальвадор

25 февраля-09 марта
  • 25февраля
    Сегодня
    +22°
    +32°
    Ясно и безоблачно
    ВремяПогодаТемператураВлажностьДавлениеВетер, м/сВероятность осадков
    00:00Ясно и безоблачно+23°C65 %760 мм1.3 м/с2 %
    03:00Ясно и безоблачно+23°C56 %759 мм1.8 м/с2 %
    06:00Ясно и безоблачно+22°C58 %760 мм2.3 м/с2 %
    09:00Ясно и безоблачно+30°C42 %761 мм1.5 м/с2 %
    12:00Ясно и безоблачно+32°C48 %760 мм5.0 м/с2 %
    15:00Ясно и безоблачно+31°C52 %758 мм4.2 м/с2 %
    18:00Ясно и безоблачно+29°C60 %759 мм0.6 м/с2 %
    21:00Ясно и безоблачно+26°C65 %760 мм1.7 м/с2 %
  • 26февраля
    Понедельник
    +23°
    +32°
    Ясно и безоблачно
    ВремяПогодаТемператураВлажностьДавлениеВетер, м/сВероятность осадков
    00:00Ясно и безоблачно+25°C65 %760 мм0.9 м/с2 %
    03:00Ясно и безоблачно+23°C63 %759 мм1.3 м/с2 %
    06:00Ясно и безоблачно+23°C63 %760 мм1.6 м/с2 %
    09:00Ясно и безоблачно+30°C48 %762 мм3.1 м/с2 %
    12:00Ясно и безоблачно+32°C55 %761 мм5.8 м/с2 %
    15:00Ясно и безоблачно+31°C57 %758 мм3.7 м/с3 %
    18:00Ясно и безоблачно+29°C64 %758 мм3.1 м/с2 %
    21:00Ясно и безоблачно+27°C69 %759 мм3.0 м/с2 %
  • 27февраля
    Вторник
    +25°
    +33°
    Ясно и безоблачно
    ВремяПогодаТемператураВлажностьДавлениеВетер, м/сВероятность осадков
    00:00Ясно и безоблачно+25°C72 %759 мм1.3 м/с2 %
    03:00Ясно и безоблачно+24°C63 %758 мм1.2 м/с2 %
    06:00Ясно и безоблачно+24°C59 %759 мм1.1 м/с2 %
    09:00Ясно и безоблачно+31°C44 %760 мм2.4 м/с2 %
    12:00Ясно и безоблачно+32°C46 %758 мм6.1 м/с2 %
    15:00Ясно и безоблачно+32°C58 %756 мм3.8 м/с2 %
    18:00Ясно и безоблачно+30°C66 %757 мм3.2 м/с2 %
    21:00Ясно и безоблачно+27°C72 %758 мм3.0 м/с2 %
  • 28февраля
    Среда
    +24°
    +33°
    Ясно и безоблачно
    ВремяПогодаТемператураВлажностьДавлениеВетер, м/сВероятность осадков
    00:00Ясно и безоблачно+26°C68 %758 мм1.1 м/с2 %
    03:00Ясно и безоблачно+25°C61 %757 мм1.1 м/с2 %
    06:00Ясно и безоблачно+25°C58 %758 мм1.3 м/с2 %
    09:00Ясно и безоблачно+31°C46 %760 мм1.1 м/с2 %
    12:00Ясно и безоблачно+33°C53 %759 мм3.6 м/с2 %
    15:00Ясно и безоблачно+33°C57 %757 мм3.8 м/с2 %
    18:00Ясно и безоблачно+31°C63 %757 мм2.6 м/с2 %
    21:00Ясно и безоблачно+28°C69 %758 мм3.2 м/с2 %
  • 29февраля
    Четверг
    +25°
    +34°
    Практически безоблачно
    ВремяПогодаТемператураВлажностьДавлениеВетер, м/сВероятность осадков
    00:00Ясно и безоблачно+26°C70 %758 мм0.5 м/с2 %
    03:00Ясно и безоблачно+26°C69 %758 мм1.8 м/с2 %
    06:00Ясно и безоблачно+25°C69 %759 мм1.1 м/с2 %
    09:00Ясно и безоблачно+31°C55 %760 мм1.0 м/с2 %
    12:00Ясно и безоблачно+33°C60 %759 мм3.1 м/с13 %
    15:00Практически безоблачно+33°C61 %757 мм3.6 м/с20 %
    18:00Ясно и безоблачно+31°C62 %758 мм2.6 м/с17 %
    21:00Ясно и безоблачно+28°C59 %759 мм3.2 м/с2 %
Мы используем cookies
Соглашаюсь